Accueil
METAR-TAF:

METAR-TAF

Aéroports :

Aéroport de Huesca-Pyrénées

Huesca, Espagne

latitude: 42-04-32N, longitude: 0-18-58W, altitude: 539 m

Observation

Le bulletin a été fait il y a 20 minutes, à 00:00 UTC
Vent 7 kt de nord/nord-ouest
Température 22°C
Humidité 43%
Pression 1019 hPa
Visibilité 10 km ou plus
pas de nuages en-dessous de 1500 mètres et pas de cumulonimbus.

METAR: LEHC 180000Z AUTO 34007KT CAVOK 22/09 Q1019

Heure: 02:20 (00:20 UTC)

Prévision

Le bulletin a été fait il y a 10 heures et 20 minutes, à 14:00 UTC
Prévision valable du 17 à 15 UTC au 18 à 15 UTC
Vent 6 kt de ouest/sud-ouest
Visibilité 10 km ou plus
Quelques nuages à une hauteur de 6000 ft
Evoluant progressivement
du 17 à 20 UTC au 17 à 23 UTC
Vent 10 kt de est

TAF: LEHC 171400Z 1715/1815 25006KT 9999 FEW060 TX34/1815Z TN19/1805Z BECMG 1720/1723 09010KT

Observations et prévisions météorologiques de plus de 4000 aéroports (messages METAR et TAF).

Les stations disponibles sont représentées par des disques jaunes et rouges sur la carte.

Passer la souris dessus pour voir le nom de la station.

Cliquer dessus pour voir les observations et prévisions météorologiques.

Pour changer de carte: cliquez sur les boutons verts avec une croix noire pour zoomer, sur le bouton vert avec un tiret pour effectuer un zoom arrière, ou sur les flèches vertes pour les cartes adjacentes.


METAR-TAF: